Pagrindinis puslapis
METAR-TAF:

METAR-TAF

Oro uostai :

Igvasu, Argentina

platuma: 25-44S, ilguma: 054-28W, Aukštis: 270 m

Dabartinis oras

Ataskaita buvo paskelbta 29 minutes, ne 13:00 UTC
Ramus vėjas
Temperatūra 14°C
Drėgmė 100%
Slėgis 1014 hPa
Matomumas: 2500 m
Apsiniaukę ne aukštis 500 ft
rūkana

METAR: SARI 131300Z 00000KT 2500 BR OVC005 14/14 Q1014

Laikas: 10:29 (13:29 UTC)

Prognozė

Ataskaita buvo paskelbta 2 valandos ir 29 minutes, ne 11:00 UTC
Prognozė galioja nuo 13 metu 12 UTC su 14 metu 12 UTC
Vėjas 5 kt iš Pietų/Pietvakarių
Matomumas: 0300 m
Apsiniaukę ne aukštis 100 ft
rūkas
Tapsmas
nuo 13 metu 13 UTC su 13 metu 15 UTC
Matomumas 10 km arba daugiau
Su prošvaistėmis ne aukštis 1000 ft

TAF: SARI 131100Z 1312/1412 20005KT 0300 FG OVC001 TX18/1318Z TN12/1409Z BECMG 1313/1315 9999 BKN010

Orai ataskaitas ir orų prognozės (METAR, TAF).

turimą stotys yra geltonos ir raudonos taškus žemėlapyje.

Perkelti pele per norėdami pamatyti stoties vardą.

Tada spustelėkite, norėdami matyti oro stebėjimo ir prognozės.

Norėdami pakeisti žemėlapį: spustelėkite ant žalios mygtukų su juodo kryžiaus žemyn,; žalią mygtuką su brūkšneliu, jei norite nutolinti; arba žalių rodyklių gretimoms žemėlapius.


METAR-TAF: